Time;durP1;ratioP1;P1;durP2;ratioP2;P2;SDS_P1;SDS_P2;PMS_P1;PMS_P2;Temp;Humidity;BMP_temperature;BMP_pressure;BME280_temperature;BME280_humidity;BME280_pressure;Samples;Min_cycle;Max_cycle;Signal;HPM_P1;HPM_P2
2023/11/02 00:03:49;;;;;;;5.97;2.30;;;;;;;9.46;100.00;98854.78;10499306;28;20032;-75
2023/11/02 00:09:15;;;;;;;8.55;2.67;;;;;;;9.47;100.00;98834.78;10498918;28;20036;-75
2023/11/02 00:14:18;;;;;;;4.43;2.88;;;;;;;9.58;100.00;98835.00;10497397;28;20082;-76
2023/11/02 00:19:32;;;;;;;4.45;2.58;;;;;;;9.62;100.00;98809.94;10480298;28;20140;-75
2023/11/02 00:24:32;;;;;;;4.20;2.53;;;;;;;9.66;100.00;98785.97;10497001;28;20059;-75
2023/11/02 00:29:33;;;;;;;11.30;3.78;;;;;;;9.74;100.00;98758.53;10479549;28;20059;-75
2023/11/02 00:34:34;;;;;;;7.80;2.65;;;;;;;9.80;100.00;98730.53;10495064;28;20381;-76
2023/11/02 00:39:35;;;;;;;5.03;2.42;;;;;;;9.83;100.00;98708.44;10478349;28;20040;-76
2023/11/02 00:44:35;;;;;;;7.22;1.90;;;;;;;9.92;100.00;98709.66;10478839;28;20082;-75
2023/11/02 00:49:35;;;;;;;11.63;2.90;;;;;;;10.03;100.00;98707.91;10496222;28;20387;-76
2023/11/02 00:54:57;;;;;;;3.22;1.50;;;;;;;10.10;100.00;98686.09;10495467;28;20086;-75
2023/11/02 00:59:58;;;;;;;5.78;2.08;;;;;;;10.16;100.00;98667.00;10494739;28;20120;-75
2023/11/02 01:05:02;;;;;;;7.57;1.83;;;;;;;10.26;100.00;98650.09;10478310;28;20036;-75
2023/11/02 01:10:04;;;;;;;3.70;2.20;;;;;;;10.29;100.00;98632.56;10494562;28;20051;-75
2023/11/02 01:15:11;;;;;;;10.80;2.85;;;;;;;10.37;100.00;98615.88;10494757;28;20040;-75
2023/11/02 01:20:14;;;;;;;1.77;1.58;;;;;;;10.37;100.00;98584.25;10494850;28;20083;-75
2023/11/02 01:25:14;;;;;;;3.72;2.03;;;;;;;10.43;100.00;98558.91;10497323;28;20111;-75
2023/11/02 01:30:17;;;;;;;2.65;2.15;;;;;;;10.33;100.00;98529.00;10496174;28;20465;-75
2023/11/02 01:35:36;;;;;;;3.55;2.35;;;;;;;10.27;100.00;98516.50;10496174;28;20028;-75
2023/11/02 01:40:40;;;;;;;8.48;3.53;;;;;;;10.15;100.00;98461.72;10494849;28;20135;-75
2023/11/02 01:45:41;;;;;;;2.50;2.13;;;;;;;10.02;100.00;98433.19;10495313;28;20036;-75
2023/11/02 01:50:42;;;;;;;9.48;3.65;;;;;;;9.99;100.00;98401.25;10494582;28;20028;-75
2023/11/02 01:55:53;;;;;;;3.23;2.07;;;;;;;10.04;100.00;98379.66;10494930;28;20040;-76
2023/11/02 02:01:09;;;;;;;8.50;1.95;;;;;;;10.10;100.00;98345.38;10496531;28;20273;-75
2023/11/02 02:06:28;;;;;;;2.03;1.02;;;;;;;10.07;100.00;98343.19;10477720;28;20051;-75
2023/11/02 02:11:31;;;;;;;5.43;1.90;;;;;;;10.11;100.00;98319.97;10495277;28;20043;-75
2023/11/02 02:16:49;;;;;;;2.38;2.17;;;;;;;10.04;100.00;98311.25;10495165;28;20384;-75
2023/11/02 02:21:57;;;;;;;7.32;1.90;;;;;;;10.09;100.00;98292.38;10493395;28;20045;-75
2023/11/02 02:27:34;;;;;;;5.15;2.58;;;;;;;10.10;100.00;98253.44;10494591;28;20394;-75
2023/11/02 02:32:59;;;;;;;8.23;2.40;;;;;;;10.17;100.00;98230.50;10477853;28;20048;-75
2023/11/02 02:38:04;;;;;;;2.40;1.58;;;;;;;10.16;100.00;98204.53;10493392;28;20043;-75
2023/11/02 02:43:05;;;;;;;9.48;1.42;;;;;;;10.28;100.00;98204.38;10494487;28;20028;-75
2023/11/02 02:48:06;;;;;;;4.00;1.80;;;;;;;10.28;100.00;98174.63;10475942;28;20025;-75
2023/11/02 02:53:08;;;;;;;2.53;1.13;;;;;;;10.42;100.00;98205.53;10491725;28;20024;-75
2023/11/02 02:58:09;;;;;;;5.78;1.88;;;;;;;10.44;100.00;98135.75;10492101;28;20029;-75
2023/11/02 03:03:09;;;;;;;5.50;2.42;;;;;;;10.48;100.00;98125.22;10495532;28;20031;-75
2023/11/02 03:08:09;;;;;;;7.25;2.05;;;;;;;10.54;100.00;98105.22;10501873;28;20052;-75
2023/11/02 03:13:12;;;;;;;4.35;1.55;;;;;;;10.56;100.00;98045.41;10499152;28;20477;-75
2023/11/02 03:18:12;;;;;;;5.65;3.47;;;;;;;10.59;100.00;98006.97;10516580;28;20182;-75
2023/11/02 03:23:43;;;;;;;2.17;1.27;;;;;;;10.58;100.00;98035.13;10501383;28;20130;-75
2023/11/02 03:28:55;;;;;;;5.72;1.92;;;;;;;10.65;100.00;98009.44;10500255;28;20116;-75
2023/11/02 03:34:10;;;;;;;10.13;2.33;;;;;;;10.68;100.00;97943.13;10499482;28;20025;-75
2023/11/02 03:40:06;;;;;;;3.70;1.98;;;;;;;10.69;100.00;97915.00;10499487;28;20029;-75
2023/11/02 03:45:20;;;;;;;8.30;2.65;;;;;;;10.73;100.00;97871.97;10465379;28;20044;-75
2023/11/02 03:50:35;;;;;;;2.72;2.45;;;;;;;10.79;100.00;97909.59;10498244;28;20032;-76
2023/11/02 03:56:11;;;;;;;16.83;2.42;;;;;;;10.79;100.00;97870.88;10498018;28;20063;-75
2023/11/02 04:01:16;;;;;;;4.20;2.47;;;;;;;10.84;100.00;97820.22;10497158;28;20024;-75
2023/11/02 04:06:21;;;;;;;3.08;1.40;;;;;;;10.76;100.00;97763.16;10497793;28;20048;-75
2023/11/02 04:11:27;;;;;;;6.30;1.80;;;;;;;10.86;100.00;97755.81;10497357;28;20032;-75
2023/11/02 04:16:28;;;;;;;2.53;2.00;;;;;;;10.93;100.00;97737.38;10480036;28;20052;-75
2023/11/02 04:21:28;;;;;;;6.80;1.88;;;;;;;10.93;100.00;97740.06;10496652;28;20060;-75
2023/11/02 04:26:29;;;;;;;2.45;1.70;;;;;;;10.97;100.00;97732.19;10496720;28;20085;-74
2023/11/02 04:31:30;;;;;;;1.77;1.65;;;;;;;11.05;100.00;97709.16;10497454;28;20039;-75
2023/11/02 04:36:30;;;;;;;6.22;2.15;;;;;;;11.11;100.00;97708.06;10464190;28;20082;-75
2023/11/02 04:41:31;;;;;;;2.10;1.40;;;;;;;11.11;100.00;97678.25;10497910;28;20072;-75
2023/11/02 04:46:31;;;;;;;2.80;1.80;;;;;;;11.07;100.00;97674.47;10497209;28;20040;-75
2023/11/02 04:51:32;;;;;;;7.72;1.52;;;;;;;10.41;100.00;97708.88;10496714;28;20471;-75
2023/11/02 04:56:32;;;;;;;1.33;1.27;;;;;;;10.11;100.00;97633.19;10495414;28;20365;-75
2023/11/02 05:01:32;;;;;;;2.90;1.80;;;;;;;10.14;100.00;97617.22;10495110;28;20100;-75
2023/11/02 05:06:33;;;;;;;3.22;2.22;;;;;;;10.30;100.00;97590.16;10511443;28;20067;-75
2023/11/02 05:11:33;;;;;;;2.03;1.30;;;;;;;10.42;100.00;97553.59;10494530;28;20025;-75
2023/11/02 05:16:34;;;;;;;1.65;1.40;;;;;;;10.51;100.00;97567.34;10495056;28;20036;-75
2023/11/02 05:21:34;;;;;;;4.70;1.67;;;;;;;10.47;100.00;97523.81;10494924;28;20113;-75
2023/11/02 05:26:34;;;;;;;1.52;1.33;;;;;;;10.29;100.00;97524.44;10494674;28;20051;-74
2023/11/02 05:31:36;;;;;;;3.65;1.45;;;;;;;10.33;100.00;97503.06;10495925;28;20461;-75
2023/11/02 05:36:36;;;;;;;7.22;1.13;;;;;;;10.22;100.00;97502.28;10496983;28;20119;-74
2023/11/02 05:41:37;;;;;;;1.15;1.15;;;;;;;10.15;100.00;97494.47;10495347;28;20036;-75
2023/11/02 05:46:37;;;;;;;1.70;1.20;;;;;;;10.16;100.00;97473.66;10495189;28;20040;-75
2023/11/02 05:51:37;;;;;;;4.93;2.60;;;;;;;9.86;100.00;97450.28;10494842;28;20360;-76
2023/11/02 05:56:38;;;;;;;3.17;1.77;;;;;;;9.69;100.00;97415.50;10493140;28;20098;-76
2023/11/02 06:01:39;;;;;;;0.90;0.90;;;;;;;9.64;100.00;97407.44;10496586;28;20028;-76
2023/11/02 06:06:40;;;;;;;5.80;1.38;;;;;;;9.67;100.00;97396.88;10496960;28;20063;-78
2023/11/02 06:11:40;;;;;;;3.58;2.40;;;;;;;9.69;100.00;97388.47;10514235;28;20051;-77
2023/11/02 06:16:40;;;;;;;1.75;1.30;;;;;;;9.78;100.00;97349.00;10494352;28;20033;-77
2023/11/02 06:21:41;;;;;;;4.15;1.48;;;;;;;9.78;100.00;97357.91;10494401;28;20047;-76
2023/11/02 06:26:41;;;;;;;2.45;1.00;;;;;;;9.83;100.00;97351.69;10495607;28;20425;-75
2023/11/02 06:31:41;;;;;;;2.13;1.00;;;;;;;9.79;100.00;97315.47;10494965;28;20045;-75
2023/11/02 06:36:42;;;;;;;1.75;1.00;;;;;;;9.71;100.00;97284.47;10496163;28;20427;-75
2023/11/02 06:41:42;;;;;;;2.00;1.58;;;;;;;9.59;100.00;97275.09;10500722;28;20094;-74
2023/11/02 06:46:43;;;;;;;1.27;1.02;;;;;;;9.62;100.00;97266.44;10501093;28;20135;-74
2023/11/02 06:51:43;;;;;;;2.40;1.23;;;;;;;9.66;100.00;97251.25;10500457;28;20040;-74
2023/11/02 06:56:44;;;;;;;0.80;0.80;;;;;;;9.73;100.00;97257.16;10500817;28;20029;-74
2023/11/02 07:01:44;;;;;;;1.67;1.30;;;;;;;9.83;100.00;97240.88;10500679;28;20098;-74
2023/11/02 07:06:45;;;;;;;1.40;1.13;;;;;;;9.91;100.00;97261.88;10500760;28;20064;-74
2023/11/02 07:11:45;;;;;;;1.42;1.08;;;;;;;9.97;100.00;97232.94;10500165;28;20044;-74
2023/11/02 07:16:45;;;;;;;1.17;1.08;;;;;;;10.08;100.00;97217.41;10481621;28;20500;-74
2023/11/02 07:21:46;;;;;;;1.88;1.58;;;;;;;10.12;100.00;97204.97;10498901;28;20048;-74
2023/11/02 07:26:46;;;;;;;4.50;1.33;;;;;;;10.14;100.00;97184.63;10499865;28;20037;-74
2023/11/02 07:31:47;;;;;;;3.40;1.45;;;;;;;10.19;100.00;97179.19;10498696;28;20029;-73
2023/11/02 07:36:48;;;;;;;2.50;1.90;;;;;;;10.17;100.00;97199.50;10499608;28;20046;-74
2023/11/02 07:41:48;;;;;;;0.40;0.40;;;;;;;10.13;100.00;97157.91;10499354;28;20432;-74
2023/11/02 07:46:49;;;;;;;0.40;0.40;;;;;;;10.16;100.00;97160.03;10499795;28;20041;-76
2023/11/02 07:51:49;;;;;;;0.50;0.50;;;;;;;10.12;100.00;97154.41;10498946;28;20032;-77
2023/11/02 07:56:50;;;;;;;0.30;0.30;;;;;;;10.11;100.00;97122.22;10497696;28;20028;-79
2023/11/02 08:01:50;;;;;;;0.30;0.30;;;;;;;10.15;100.00;97121.38;10500478;28;20039;-80
2023/11/02 08:06:50;;;;;;;0.38;0.38;;;;;;;10.23;100.00;97101.00;10496767;28;20040;-77
2023/11/02 08:11:51;;;;;;;0.25;0.25;;;;;;;10.22;100.00;97077.78;10498031;28;20033;-77
2023/11/02 08:16:51;;;;;;;1.35;1.35;;;;;;;10.16;100.00;97079.72;10497807;28;20411;-76
2023/11/02 08:21:52;;;;;;;0.40;0.40;;;;;;;10.18;100.00;97084.88;10498272;28;20135;-77
2023/11/02 08:26:53;;;;;;;1.20;1.20;;;;;;;10.22;100.00;97048.84;10500680;28;20050;-78
2023/11/02 08:31:53;;;;;;;0.40;0.40;;;;;;;10.31;100.00;97029.31;10498247;28;20067;-78
2023/11/02 08:36:54;;;;;;;4.30;1.45;;;;;;;10.28;100.00;97046.91;10496449;28;20083;-78
2023/11/02 08:41:54;;;;;;;3.95;2.30;;;;;;;10.29;100.00;97035.00;10499279;28;20040;-78
2023/11/02 08:46:55;;;;;;;13.23;3.03;;;;;;;10.21;100.00;97030.19;10495077;28;20154;-78
2023/11/02 08:51:55;;;;;;;3.38;1.58;;;;;;;10.17;100.00;97026.47;10496455;28;20036;-78
2023/11/02 08:56:55;;;;;;;16.92;2.45;;;;;;;10.14;100.00;96994.59;10505280;28;20052;-79
2023/11/02 09:01:56;;;;;;;12.10;2.63;;;;;;;10.10;100.00;96988.97;10509669;28;20032;-79
2023/11/02 09:06:56;;;;;;;14.90;3.38;;;;;;;10.06;100.00;96976.34;10499230;28;20051;-80
2023/11/02 09:11:57;;;;;;;0.50;0.50;;;;;;;10.01;100.00;96994.22;10522911;28;20040;-79
2023/11/02 09:16:57;;;;;;;0.30;0.30;;;;;;;9.97;100.00;97005.91;10497937;28;20052;-79
2023/11/02 09:21:58;;;;;;;0.30;0.30;;;;;;;9.97;100.00;96974.28;10502280;28;20098;-81
2023/11/02 09:26:58;;;;;;;0.45;0.45;;;;;;;9.92;100.00;96995.13;10508339;28;20157;-80
2023/11/02 09:31:59;;;;;;;0.40;0.40;;;;;;;10.02;100.00;96987.72;10496919;28;20033;-79
2023/11/02 09:37:00;;;;;;;0.47;0.47;;;;;;;10.08;100.00;96960.63;10496756;28;20463;-79
2023/11/02 09:42:01;;;;;;;0.40;0.40;;;;;;;10.08;100.00;96969.53;10496636;28;20063;-80
2023/11/02 09:47:02;;;;;;;0.40;0.40;;;;;;;10.04;100.00;97002.84;10499592;28;20530;-82
2023/11/02 09:52:03;;;;;;;0.40;0.40;;;;;;;10.21;100.00;96973.41;10506323;28;20048;-82
2023/11/02 09:57:04;;;;;;;0.40;0.40;;;;;;;10.35;100.00;96971.63;10503484;28;20050;-81
2023/11/02 10:02:04;;;;;;;0.40;0.40;;;;;;;10.36;100.00;96918.34;10486594;28;20169;-81
2023/11/02 10:07:05;;;;;;;0.50;0.50;;;;;;;10.51;100.00;96930.84;10494530;28;20499;-80
2023/11/02 10:12:06;;;;;;;0.75;0.75;;;;;;;10.62;100.00;96943.09;10498103;28;20048;-79
2023/11/02 10:17:06;;;;;;;0.82;0.82;;;;;;;10.65;100.00;96953.34;10505724;28;20108;-80
2023/11/02 10:22:06;;;;;;;5.55;2.78;;;;;;;10.27;100.00;96937.13;10499694;28;20128;-79
2023/11/02 10:27:07;;;;;;;10.80;2.53;;;;;;;10.30;100.00;96977.09;10521572;28;20037;-80
2023/11/02 10:32:08;;;;;;;9.15;2.70;;;;;;;10.25;100.00;96953.63;10510111;28;20033;-80
2023/11/02 10:37:08;;;;;;;10.18;2.58;;;;;;;10.30;100.00;96928.44;10485737;28;20036;-82
2023/11/02 10:42:09;;;;;;;7.15;3.70;;;;;;;10.41;100.00;96919.09;10502938;28;20041;-81
2023/11/02 10:47:09;;;;;;;11.77;2.38;;;;;;;10.35;100.00;96930.28;10504471;28;20047;-80
2023/11/02 10:52:11;;;;;;;4.38;2.15;;;;;;;10.24;100.00;96926.88;10508655;28;20082;-81
2023/11/02 10:57:16;;;;;;;0.40;0.40;;;;;;;10.25;100.00;96926.59;10506520;28;20055;-80
2023/11/02 11:02:17;;;;;;;8.27;2.78;;;;;;;10.22;100.00;96907.44;10502051;28;20118;-80
2023/11/02 11:07:18;;;;;;;3.08;1.80;;;;;;;10.31;100.00;96904.94;10482914;28;20043;-81
2023/11/02 11:12:19;;;;;;;11.20;3.08;;;;;;;10.42;100.00;96874.72;10499491;28;20043;-83
2023/11/02 11:17:19;;;;;;;8.23;3.10;;;;;;;10.77;100.00;96891.44;10499756;28;20078;-81
2023/11/02 11:22:23;;;;;;;7.10;2.95;;;;;;;10.97;100.00;96878.66;10499560;28;20056;-81
2023/11/02 11:27:37;;;;;;;10.18;2.53;;;;;;;11.10;100.00;96845.38;10500080;28;20059;-80
2023/11/02 11:32:37;;;;;;;2.40;1.98;;;;;;;11.13;100.00;96872.66;10499571;28;20059;-80
2023/11/02 11:37:47;;;;;;;8.68;1.92;;;;;;;11.18;100.00;96875.28;10499709;28;20495;-80
2023/11/02 11:43:15;;;;;;;1.80;1.60;;;;;;;11.27;100.00;96861.84;10500666;28;20028;-80
2023/11/02 11:48:31;;;;;;;3.50;1.88;;;;;;;11.27;100.00;96874.59;10499561;28;20032;-79
2023/11/02 11:53:32;;;;;;;5.23;2.00;;;;;;;10.95;100.00;96881.69;10499759;28;20047;-80
2023/11/02 11:58:35;;;;;;;8.98;2.15;;;;;;;10.77;100.00;96852.78;10502107;28;20059;-80
2023/11/02 12:03:35;;;;;;;2.28;1.88;;;;;;;10.60;100.00;96837.91;10500562;28;20040;-78
2023/11/02 12:08:43;;;;;;;2.60;1.25;;;;;;;10.65;100.00;96837.81;10498489;28;20119;-76
2023/11/02 12:14:00;;;;;;;2.70;1.33;;;;;;;10.77;100.00;96825.72;10498930;28;20402;-76
2023/11/02 12:19:01;;;;;;;2.60;1.63;;;;;;;10.83;100.00;96833.44;10498486;28;20114;-76
2023/11/02 12:24:01;;;;;;;6.13;1.92;;;;;;;10.55;100.00;96837.97;10497983;28;20296;-76
2023/11/02 12:29:09;;;;;;;8.40;3.50;;;;;;;10.08;100.00;96796.53;10497415;28;20092;-75
2023/11/02 12:34:12;;;;;;;1.50;1.40;;;;;;;9.59;100.00;96827.53;10494864;28;20108;-78
2023/11/02 12:39:14;;;;;;;4.05;1.92;;;;;;;9.30;100.00;96809.53;10496010;28;20048;-78
2023/11/02 12:44:16;;;;;;;1.13;1.13;;;;;;;9.26;100.00;96821.22;10497827;28;20147;-78
2023/11/02 12:49:21;;;;;;;0.40;0.40;;;;;;;9.19;100.00;96813.47;10495750;28;20040;-79
2023/11/02 12:54:21;;;;;;;0.50;0.50;;;;;;;9.07;100.00;96804.97;10498286;28;20028;-78
2023/11/02 12:59:26;;;;;;;0.50;0.50;;;;;;;9.07;100.00;96799.59;10499282;28;20120;-77
2023/11/02 13:04:48;;;;;;;0.40;0.40;;;;;;;8.92;100.00;96784.38;10496665;28;20037;-78
2023/11/02 13:10:17;;;;;;;8.88;3.33;;;;;;;8.92;100.00;96789.75;10496002;28;20033;-76
2023/11/02 13:15:18;;;;;;;1.67;1.67;;;;;;;8.91;100.00;96803.56;10495060;28;20045;-78
2023/11/02 13:20:18;;;;;;;0.50;0.50;;;;;;;8.90;100.00;96791.13;10511406;28;20053;-77
2023/11/02 13:25:21;;;;;;;10.27;2.30;;;;;;;8.81;100.00;96781.00;10495781;28;20037;-79
2023/11/02 13:30:22;;;;;;;5.28;0.95;;;;;;;8.80;100.00;96795.56;10495480;28;20116;-78
2023/11/02 13:35:23;;;;;;;1.70;1.60;;;;;;;8.81;100.00;96775.59;10495366;28;20465;-78
2023/11/02 13:40:26;;;;;;;1.50;1.40;;;;;;;8.77;100.00;96779.94;10494841;28;20043;-77
2023/11/02 13:45:27;;;;;;;4.95;2.03;;;;;;;8.87;100.00;96783.63;10495129;28;20037;-77
2023/11/02 13:50:28;;;;;;;1.52;1.42;;;;;;;8.75;100.00;96786.72;10494360;28;20353;-77
2023/11/02 13:55:30;;;;;;;3.40;1.83;;;;;;;8.69;100.00;96777.09;10493849;28;20032;-79
2023/11/02 14:00:31;;;;;;;3.13;1.98;;;;;;;8.67;100.00;96761.19;10495326;28;20075;-79
2023/11/02 14:05:31;;;;;;;1.38;1.35;;;;;;;8.71;100.00;96785.69;10492701;28;20391;-75
2023/11/02 14:10:32;;;;;;;3.53;1.70;;;;;;;8.93;100.00;96777.88;10495707;28;20494;-75
2023/11/02 14:15:32;;;;;;;2.47;1.88;;;;;;;9.19;100.00;96774.84;10495655;28;20226;-75
2023/11/02 14:20:33;;;;;;;2.33;2.13;;;;;;;9.28;100.00;96856.81;10495511;28;20470;-80
2023/11/02 14:25:34;;;;;;;1.55;1.45;;;;;;;9.44;100.00;96798.81;10495039;28;20131;-73
2023/11/02 14:30:34;;;;;;;4.97;1.90;;;;;;;9.64;100.00;96769.94;10493595;28;20125;-73
2023/11/02 14:35:36;;;;;;;2.88;1.95;;;;;;;9.72;100.00;96774.69;10493219;28;20534;-73
2023/11/02 14:40:36;;;;;;;1.98;1.50;;;;;;;9.78;100.00;96808.63;10494459;28;20120;-73
2023/11/02 14:45:37;;;;;;;1.15;1.05;;;;;;;9.71;100.00;96797.41;10492913;28;20055;-72
2023/11/02 14:50:37;;;;;;;8.27;1.17;;;;;;;9.71;100.00;96805.50;10491876;28;20044;-73
2023/11/02 14:55:38;;;;;;;1.63;1.45;;;;;;;9.68;100.00;96808.78;10492883;28;20489;-73
2023/11/02 15:00:38;;;;;;;1.92;1.00;;;;;;;9.71;100.00;96819.00;10500577;28;20063;-73
2023/11/02 15:05:39;;;;;;;0.95;0.90;;;;;;;9.74;100.00;96835.44;10502414;28;20404;-73
2023/11/02 15:10:40;;;;;;;2.05;1.83;;;;;;;9.89;100.00;96822.78;10502445;28;20025;-73
2023/11/02 15:15:41;;;;;;;0.70;0.70;;;;;;;9.76;100.00;96827.03;10499926;28;20387;-73
2023/11/02 15:20:41;;;;;;;1.27;0.93;;;;;;;9.86;100.00;96823.38;10499160;28;20059;-73
2023/11/02 15:25:42;;;;;;;3.60;1.58;;;;;;;10.02;100.00;96855.28;10500164;28;20131;-73
2023/11/02 15:30:42;;;;;;;3.03;1.58;;;;;;;10.05;100.00;96853.09;10499358;28;20031;-73
2023/11/02 15:35:43;;;;;;;6.53;1.73;;;;;;;9.97;100.00;96895.09;10500050;28;20048;-73
2023/11/02 15:40:44;;;;;;;6.82;1.50;;;;;;;9.99;100.00;96850.47;10499588;28;20409;-73
2023/11/02 15:45:44;;;;;;;5.40;1.70;;;;;;;9.86;100.00;96904.44;10500527;28;20137;-73
2023/11/02 15:50:45;;;;;;;6.47;0.77;;;;;;;9.68;100.00;96882.50;10499093;28;20380;-73
2023/11/02 15:55:46;;;;;;;7.38;1.42;;;;;;;9.71;100.00;96892.75;10498818;28;20040;-71
2023/11/02 16:00:48;;;;;;;6.35;1.60;;;;;;;9.67;100.00;96893.63;10498390;28;20035;-71
2023/11/02 16:05:48;;;;;;;2.78;1.40;;;;;;;9.51;100.00;96858.69;10498762;28;20090;-71
2023/11/02 16:10:49;;;;;;;2.15;1.17;;;;;;;9.60;100.00;96936.38;10497846;28;20508;-71
2023/11/02 16:15:50;;;;;;;1.67;1.58;;;;;;;9.50;100.00;96932.69;10498565;28;20055;-71
2023/11/02 16:20:51;;;;;;;1.88;1.25;;;;;;;9.67;100.00;96909.81;10496072;28;20048;-72
2023/11/02 16:25:51;;;;;;;5.25;2.10;;;;;;;9.70;100.00;96957.84;10498991;28;20138;-71
2023/11/02 16:30:52;;;;;;;6.13;1.42;;;;;;;9.75;100.00;96966.69;10497454;28;20119;-71
2023/11/02 16:35:52;;;;;;;3.13;1.95;;;;;;;9.69;100.00;96972.47;10496287;28;20603;-72
2023/11/02 16:40:53;;;;;;;4.72;1.67;;;;;;;9.71;100.00;96979.19;10496102;28;20093;-72
2023/11/02 16:45:53;;;;;;;3.65;1.20;;;;;;;9.71;100.00;96987.28;10497256;28;20047;-72
2023/11/02 16:50:53;;;;;;;2.05;1.60;;;;;;;9.56;100.00;97000.97;10495745;28;20032;-72
2023/11/02 16:55:54;;;;;;;3.20;1.25;;;;;;;9.30;100.00;97009.31;10496787;28;20522;-72
2023/11/02 17:00:55;;;;;;;2.38;1.23;;;;;;;9.22;100.00;97020.75;10494689;28;20028;-72
2023/11/02 17:05:55;;;;;;;4.50;1.67;;;;;;;9.08;100.00;97036.78;10495647;28;20079;-71
2023/11/02 17:10:56;;;;;;;0.90;0.77;;;;;;;9.04;100.00;97022.25;10477651;28;20028;-72
2023/11/02 17:15:57;;;;;;;2.60;1.55;;;;;;;9.06;100.00;97030.88;10495919;28;20060;-71
2023/11/02 17:21:00;;;;;;;1.25;1.23;;;;;;;9.21;100.00;97056.09;10495472;28;20117;-72
2023/11/02 17:26:01;;;;;;;1.83;1.70;;;;;;;9.22;100.00;97014.53;10495140;28;20094;-72
2023/11/02 17:31:01;;;;;;;4.63;2.13;;;;;;;9.39;100.00;97079.72;10495018;28;20082;-72
2023/11/02 17:36:02;;;;;;;2.67;1.52;;;;;;;9.49;100.00;97059.91;10495354;28;20114;-72
2023/11/02 17:41:03;;;;;;;6.00;1.90;;;;;;;9.54;100.00;97057.97;10495034;28;20038;-72
2023/11/02 17:46:03;;;;;;;2.42;1.38;;;;;;;9.64;100.00;97051.66;10495894;28;20401;-72
2023/11/02 17:51:05;;;;;;;2.72;1.75;;;;;;;9.80;100.00;97049.63;10495101;28;20434;-72
2023/11/02 17:56:05;;;;;;;7.93;3.50;;;;;;;9.80;100.00;97086.63;10495317;28;20131;-72
2023/11/02 18:01:06;;;;;;;3.05;1.80;;;;;;;9.77;100.00;97079.91;10492846;28;20054;-72
2023/11/02 18:06:08;;;;;;;4.57;1.63;;;;;;;9.77;100.00;97088.00;10475207;28;20032;-72
2023/11/02 18:11:08;;;;;;;1.73;1.63;;;;;;;9.78;100.00;97117.44;10495999;28;20033;-72
2023/11/02 18:16:12;;;;;;;1.77;1.45;;;;;;;9.71;100.00;97118.88;10495121;28;20052;-73
2023/11/02 18:21:13;;;;;;;1.45;1.42;;;;;;;9.68;100.00;97089.72;10495980;28;20048;-73
2023/11/02 18:26:14;;;;;;;1.50;1.40;;;;;;;9.60;100.00;97098.44;10493720;28;20051;-72
2023/11/02 18:31:17;;;;;;;5.15;1.88;;;;;;;9.72;100.00;97090.75;10496010;28;20512;-73
2023/11/02 18:36:17;;;;;;;2.83;1.40;;;;;;;9.70;100.00;97074.00;10502363;28;20410;-73
2023/11/02 18:41:21;;;;;;;3.67;1.65;;;;;;;9.75;100.00;97106.38;10501659;28;20024;-73
2023/11/02 18:46:22;;;;;;;5.28;1.63;;;;;;;9.44;100.00;97101.25;10502723;28;20033;-73
2023/11/02 18:51:23;;;;;;;1.13;1.13;;;;;;;9.21;100.00;97102.00;10516769;28;20037;-72
2023/11/02 18:56:23;;;;;;;1.58;1.48;;;;;;;9.17;100.00;97146.84;10500720;28;20067;-72
2023/11/02 19:01:24;;;;;;;3.45;1.42;;;;;;;9.13;100.00;97119.59;10500400;28;20456;-72
2023/11/02 19:06:28;;;;;;;7.13;2.83;;;;;;;9.06;100.00;97132.59;10501751;28;20059;-72
2023/11/02 19:11:28;;;;;;;2.20;1.65;;;;;;;8.89;100.00;97141.06;10499551;28;20036;-72
2023/11/02 19:16:29;;;;;;;6.53;1.73;;;;;;;8.74;100.00;97155.47;10499504;28;20036;-73
2023/11/02 19:21:39;;;;;;;5.25;1.92;;;;;;;8.55;100.00;97155.28;10499785;28;20096;-73
2023/11/02 19:26:43;;;;;;;5.65;1.88;;;;;;;8.65;100.00;97148.19;10501642;28;20024;-73
2023/11/02 19:31:44;;;;;;;1.70;1.30;;;;;;;8.60;100.00;97159.81;10499445;28;20051;-73
2023/11/02 19:36:52;;;;;;;5.28;1.83;;;;;;;8.45;100.00;97143.69;10500226;28;20496;-73
2023/11/02 19:41:52;;;;;;;1.50;1.40;;;;;;;8.49;100.00;97158.28;10500456;28;20033;-73
2023/11/02 19:46:53;;;;;;;0.40;0.40;;;;;;;8.42;100.00;97177.41;10499447;28;20037;-73
2023/11/02 19:51:53;;;;;;;1.55;1.40;;;;;;;8.35;100.00;97177.66;10499039;28;20040;-70
2023/11/02 19:56:55;;;;;;;0.40;0.40;;;;;;;8.26;100.00;97191.97;10498633;28;20068;-72
2023/11/02 20:01:56;;;;;;;1.13;1.10;;;;;;;8.05;100.00;97197.44;10499339;28;20032;-71
2023/11/02 20:06:57;;;;;;;0.50;0.50;;;;;;;8.11;100.00;97193.66;10498302;28;20473;-71
2023/11/02 20:11:58;;;;;;;0.60;0.60;;;;;;;7.97;100.00;97208.75;10498525;28;20082;-73
2023/11/02 20:16:59;;;;;;;0.40;0.40;;;;;;;7.86;100.00;97212.53;10498284;28;20115;-70
2023/11/02 20:21:59;;;;;;;0.38;0.38;;;;;;;7.83;100.00;97213.88;10498201;28;20049;-72
2023/11/02 20:27:00;;;;;;;0.40;0.40;;;;;;;7.74;100.00;97220.06;10499257;28;20036;-70
2023/11/02 20:32:03;;;;;;;0.65;0.65;;;;;;;7.71;100.00;97244.84;10498180;28;20453;-74
2023/11/02 20:37:04;;;;;;;0.50;0.50;;;;;;;7.68;100.00;97232.72;10517691;28;20214;-72
2023/11/02 20:42:04;;;;;;;0.40;0.40;;;;;;;7.77;100.00;97238.38;10500282;28;20036;-70
2023/11/02 20:47:05;;;;;;;0.40;0.40;;;;;;;7.82;100.00;97233.81;10500739;28;20041;-70
2023/11/02 20:52:05;;;;;;;0.45;0.45;;;;;;;7.86;100.00;97234.09;10500386;28;20124;-72
2023/11/02 20:57:06;;;;;;;0.70;0.70;;;;;;;7.91;100.00;97266.38;10496100;28;20049;-71
2023/11/02 21:02:06;;;;;;;0.75;0.75;;;;;;;7.93;100.00;97261.56;10495825;28;20036;-72
2023/11/02 21:07:08;;;;;;;4.18;2.47;;;;;;;7.88;100.00;97262.38;10497050;28;20107;-73
2023/11/02 21:12:09;;;;;;;0.40;0.40;;;;;;;7.97;100.00;97256.44;10496210;28;20033;-71
2023/11/02 21:17:13;;;;;;;0.52;0.52;;;;;;;8.02;100.00;97248.34;10478831;28;20365;-70
2023/11/02 21:22:14;;;;;;;0.40;0.40;;;;;;;8.00;100.00;97262.09;10495540;28;20463;-70
2023/11/02 21:27:14;;;;;;;0.50;0.50;;;;;;;7.98;100.00;97280.44;10494469;28;20094;-72
2023/11/02 21:32:14;;;;;;;0.50;0.50;;;;;;;8.02;100.00;97249.16;10494374;28;20462;-70
2023/11/02 21:37:15;;;;;;;0.30;0.30;;;;;;;7.99;100.00;97262.38;10493614;28;20060;-71
2023/11/02 21:42:15;;;;;;;0.50;0.50;;;;;;;7.99;100.00;97249.69;10494338;28;20108;-74
2023/11/02 21:47:16;;;;;;;0.40;0.40;;;;;;;8.03;100.00;97252.66;10495639;28;20033;-72
2023/11/02 21:52:16;;;;;;;1.63;1.63;;;;;;;8.03;100.00;97253.47;10510039;28;20055;-74
2023/11/02 21:57:18;;;;;;;0.47;0.47;;;;;;;8.04;100.00;97268.56;10493765;28;20028;-72
2023/11/02 22:02:19;;;;;;;2.38;1.95;;;;;;;8.06;100.00;97262.91;10493322;28;20024;-73
2023/11/02 22:07:20;;;;;;;0.50;0.50;;;;;;;8.06;100.00;97285.25;10494135;28;20036;-72
2023/11/02 22:12:20;;;;;;;0.60;0.60;;;;;;;8.11;100.00;97279.88;10509775;28;20108;-72
2023/11/02 22:17:21;;;;;;;0.70;0.70;;;;;;;8.14;100.00;97268.56;10493427;28;20036;-73
2023/11/02 22:22:21;;;;;;;1.92;1.88;;;;;;;8.14;100.00;97282.03;10493434;28;20045;-72
2023/11/02 22:27:22;;;;;;;0.45;0.45;;;;;;;8.20;100.00;97308.97;10494257;28;20040;-72
2023/11/02 22:32:22;;;;;;;1.88;1.77;;;;;;;8.19;100.00;97301.97;10509610;28;20032;-73
2023/11/02 22:37:23;;;;;;;0.65;0.65;;;;;;;8.17;100.00;97310.34;10494149;28;20075;-75
2023/11/02 22:42:23;;;;;;;0.45;0.45;;;;;;;8.21;100.00;97316.00;10492116;28;20033;-73
2023/11/02 22:47:23;;;;;;;0.40;0.40;;;;;;;8.23;100.00;97324.59;10492307;28;20114;-72
2023/11/02 22:52:24;;;;;;;0.30;0.30;;;;;;;8.23;100.00;97321.91;10493562;28;20040;-73
2023/11/02 22:57:24;;;;;;;0.40;0.40;;;;;;;8.20;100.00;97315.19;10493428;28;20040;-72
2023/11/02 23:02:25;;;;;;;0.50;0.50;;;;;;;8.15;100.00;97347.50;10493429;28;20385;-71
2023/11/02 23:07:25;;;;;;;0.35;0.35;;;;;;;8.12;100.00;97335.38;10494041;28;20497;-72
2023/11/02 23:12:25;;;;;;;0.40;0.40;;;;;;;8.06;100.00;97358.00;10492818;28;20460;-72
2023/11/02 23:17:26;;;;;;;0.40;0.40;;;;;;;8.02;100.00;97361.53;10493399;28;20376;-73
2023/11/02 23:22:26;;;;;;;0.30;0.30;;;;;;;8.05;100.00;97363.69;10501511;28;20049;-73